Time;durP1;ratioP1;P1;durP2;ratioP2;P2;SDS_P1;SDS_P2;PMS_P1;PMS_P2;Temp;Humidity;BMP_temperature;BMP_pressure;BME280_temperature;BME280_humidity;BME280_pressure;Samples;Min_cycle;Max_cycle;Signal;HPM_P1;HPM_P2
2023/06/16 00:02:00;;;;;;;8.15;4.75;;;20.40;93.00;;;;;;5029043;28;20017;-71
2023/06/16 00:04:27;;;;;;;5.13;4.40;;;20.40;92.90;;;;;;5017926;28;20371;-71
2023/06/16 00:06:53;;;;;;;8.10;4.40;;;20.30;93.00;;;;;;5025125;28;20034;-71
2023/06/16 00:09:22;;;;;;;7.05;4.68;;;20.30;93.40;;;;;;5008984;28;20048;-71
2023/06/16 00:11:48;;;;;;;6.60;5.60;;;20.30;93.20;;;;;;5030117;28;20033;-71
2023/06/16 00:14:13;;;;;;;4.55;4.05;;;20.30;93.50;;;;;;5029448;28;20026;-70
2023/06/16 00:16:40;;;;;;;9.48;5.30;;;20.30;93.30;;;;;;5022977;28;20041;-71
2023/06/16 00:19:06;;;;;;;5.80;5.07;;;20.20;93.00;;;;;;5033537;28;20147;-71
2023/06/16 00:21:38;;;;;;;5.78;4.55;;;20.10;92.80;;;;;;5030436;28;20091;-71
2023/06/16 00:24:06;;;;;;;9.15;5.90;;;20.20;93.30;;;;;;5026205;28;20376;-71
2023/06/16 00:26:32;;;;;;;9.38;5.30;;;20.10;93.10;;;;;;5016567;28;20473;-71
2023/06/16 00:28:57;;;;;;;9.90;5.72;;;20.10;94.10;;;;;;5024418;28;20032;-71
2023/06/16 00:31:25;;;;;;;9.15;4.63;;;20.00;94.50;;;;;;5028074;28;20080;-71
2023/06/16 00:33:51;;;;;;;5.93;4.90;;;20.00;94.50;;;;;;5025682;28;20038;-71
2023/06/16 00:36:17;;;;;;;11.60;5.82;;;20.00;94.40;;;;;;5016720;28;20045;-71
2023/06/16 00:38:43;;;;;;;10.32;5.53;;;19.90;94.40;;;;;;5027958;28;20107;-71
2023/06/16 00:41:09;;;;;;;10.07;5.47;;;19.90;94.20;;;;;;5027323;28;20092;-71
2023/06/16 00:43:34;;;;;;;7.63;5.80;;;19.90;94.10;;;;;;5021821;28;20037;-71
2023/06/16 00:46:00;;;;;;;9.25;4.72;;;19.80;94.10;;;;;;5028942;28;20457;-71
2023/06/16 00:48:26;;;;;;;6.03;5.43;;;19.80;94.60;;;;;;5030198;28;20029;-71
2023/06/16 00:50:54;;;;;;;7.50;5.95;;;19.80;94.10;;;;;;5025386;28;20018;-71
2023/06/16 00:53:21;;;;;;;7.20;4.60;;;19.70;95.00;;;;;;5007113;28;20034;-71
2023/06/16 00:55:47;;;;;;;7.38;5.00;;;19.70;95.20;;;;;;5030627;28;20018;-68
2023/06/16 00:58:15;;;;;;;10.93;4.85;;;19.60;94.70;;;;;;5021884;28;20080;-69
2023/06/16 01:00:41;;;;;;;9.88;4.85;;;19.50;94.60;;;;;;5027867;28;20116;-68
2023/06/16 01:03:08;;;;;;;7.07;5.22;;;19.50;94.20;;;;;;5028426;28;20104;-69
2023/06/16 01:05:35;;;;;;;6.53;5.40;;;19.50;94.90;;;;;;5019494;28;20027;-68
2023/06/16 01:08:15;;;;;;;9.88;4.95;;;19.40;95.10;;;;;;5021097;28;20033;-69
2023/06/16 01:11:11;;;;;;;8.75;5.18;;;19.40;95.20;;;;;;5028599;28;20508;-69
2023/06/16 01:14:03;;;;;;;6.10;4.80;;;19.30;95.40;;;;;;5029403;28;20088;-68
2023/06/16 01:16:31;;;;;;;9.77;5.70;;;19.20;95.80;;;;;;5024691;28;20037;-68
2023/06/16 01:19:02;;;;;;;7.75;5.47;;;19.20;95.80;;;;;;5019536;28;20026;-68
2023/06/16 01:22:06;;;;;;;7.45;6.00;;;19.20;96.20;;;;;;5030891;28;20017;-69
2023/06/16 01:24:33;;;;;;;8.32;5.68;;;19.10;96.20;;;;;;5025035;28;20522;-69
2023/06/16 01:27:00;;;;;;;10.15;6.13;;;19.10;96.00;;;;;;5022105;28;20033;-69
2023/06/16 01:29:27;;;;;;;10.02;6.13;;;19.10;96.00;;;;;;5025213;28;20025;-69
2023/06/16 01:31:57;;;;;;;9.82;6.32;;;19.00;96.40;;;;;;5026302;28;20041;-69
2023/06/16 01:34:23;;;;;;;10.27;6.22;;;19.00;97.00;;;;;;5028533;28;20115;-69
2023/06/16 01:36:50;;;;;;;8.15;6.18;;;18.90;96.70;;;;;;5018520;28;20537;-68
2023/06/16 01:39:17;;;;;;;7.43;6.50;;;18.90;96.10;;;;;;5023676;28;20049;-69
2023/06/16 01:41:45;;;;;;;8.32;6.40;;;18.80;96.60;;;;;;5020231;28;20014;-68
2023/06/16 01:44:10;;;;;;;10.38;6.32;;;18.80;97.10;;;;;;5029771;28;20462;-68
2023/06/16 01:46:37;;;;;;;12.38;7.43;;;18.80;97.40;;;;;;5021167;28;20036;-69
2023/06/16 01:49:04;;;;;;;9.68;6.55;;;18.70;97.30;;;;;;5022192;28;20032;-68
2023/06/16 01:51:30;;;;;;;11.38;6.65;;;18.70;97.40;;;;;;5024751;28;20111;-68
2023/06/16 01:53:56;;;;;;;11.60;6.00;;;18.70;97.50;;;;;;5026688;28;20529;-68
2023/06/16 01:56:22;;;;;;;7.13;6.00;;;18.60;98.20;;;;;;5029103;28;20021;-68
2023/06/16 01:58:49;;;;;;;8.85;6.75;;;18.60;98.20;;;;;;5024003;28;20035;-69
2023/06/16 02:01:28;;;;;;;9.50;6.40;;;18.60;98.50;;;;;;5029277;28;20786;-69
2023/06/16 02:04:04;;;;;;;9.77;6.32;;;18.50;98.50;;;;;;5023314;28;20034;-68
2023/06/16 02:06:42;;;;;;;9.48;6.32;;;18.50;98.70;;;;;;5020453;28;20034;-68
2023/06/16 02:09:11;;;;;;;10.57;7.45;;;18.50;99.00;;;;;;5022640;28;20410;-69
2023/06/16 02:11:37;;;;;;;7.10;6.38;;;18.40;98.60;;;;;;5025709;28;20018;-68
2023/06/16 02:14:04;;;;;;;8.18;5.93;;;18.40;99.00;;;;;;5017346;28;20080;-68
2023/06/16 02:16:36;;;;;;;7.50;6.20;;;18.40;99.00;;;;;;5028190;28;20410;-68
2023/06/16 02:19:02;;;;;;;;;;;18.40;99.30;;;;;;5024647;28;20026;-69
2023/06/16 02:21:27;;;;;;;10.70;6.93;;;18.30;98.90;;;;;;5022167;28;20376;-69
2023/06/16 02:23:53;;;;;;;12.25;6.90;;;18.40;99.60;;;;;;5025507;28;20021;-69
2023/06/16 02:26:19;;;;;;;6.47;5.72;;;18.30;99.10;;;;;;5026291;28;20414;-68
2023/06/16 02:28:44;;;;;;;7.20;6.40;;;18.20;99.80;;;;;;5028017;28;20112;-68
2023/06/16 02:31:12;;;;;;;8.55;6.43;;;18.20;99.60;;;;;;5019141;28;20526;-69
2023/06/16 02:33:40;;;;;;;11.23;6.50;;;18.20;99.90;;;;;;5023131;28;20029;-69
2023/06/16 02:36:05;;;;;;;9.30;6.50;;;18.10;99.90;;;;;;5026071;28;20022;-69
2023/06/16 02:38:31;;;;;;;8.13;6.13;;;18.10;99.90;;;;;;5023587;28;20060;-69
2023/06/16 02:40:57;;;;;;;10.32;6.78;;;18.00;99.90;;;;;;5006083;28;20378;-68
2023/06/16 02:43:22;;;;;;;9.60;6.30;;;18.00;99.90;;;;;;5004672;28;20030;-69
2023/06/16 02:45:48;;;;;;;10.75;6.30;;;17.90;99.90;;;;;;5026358;28;20018;-69
2023/06/16 02:48:13;;;;;;;11.40;7.18;;;17.90;99.90;;;;;;5021639;28;20034;-69
2023/06/16 02:50:39;;;;;;;10.93;7.00;;;17.90;99.90;;;;;;5009942;28;20021;-69
2023/06/16 02:53:05;;;;;;;9.52;7.32;;;17.90;99.90;;;;;;5022416;28;20057;-69
2023/06/16 02:55:31;;;;;;;8.10;6.30;;;17.90;99.90;;;;;;5030830;28;20025;-69
2023/06/16 02:57:57;;;;;;;8.63;6.28;;;17.90;99.90;;;;;;5030875;28;20025;-69
2023/06/16 03:00:22;;;;;;;10.23;6.50;;;17.80;99.90;;;;;;5027628;28;20028;-68
2023/06/16 03:02:48;;;;;;;12.18;6.93;;;17.80;99.90;;;;;;5029383;28;20025;-68
2023/06/16 03:05:17;;;;;;;10.25;8.52;;;17.80;99.90;;;;;;5031157;28;20377;-69
2023/06/16 03:07:44;;;;;;;11.98;7.50;;;17.80;99.90;;;;;;5028416;28;20121;-70
2023/06/16 03:10:11;;;;;;;13.38;9.27;;;17.80;99.90;;;;;;5033829;28;20381;-69
2023/06/16 03:12:36;;;;;;;14.75;9.77;;;17.80;99.90;;;;;;5026703;28;20812;-69
2023/06/16 03:15:03;;;;;;;12.60;9.48;;;17.70;99.90;;;;;;5022434;28;20089;-69
2023/06/16 03:17:28;;;;;;;12.13;9.80;;;17.70;99.90;;;;;;5021418;28;20104;-69
2023/06/16 03:19:54;;;;;;;14.20;9.63;;;17.60;99.90;;;;;;5033657;28;20060;-68
2023/06/16 03:22:20;;;;;;;10.18;8.48;;;17.60;99.90;;;;;;5031293;28;20021;-69
2023/06/16 03:24:46;;;;;;;14.77;10.07;;;17.50;99.90;;;;;;5026391;28;20066;-69
2023/06/16 03:27:12;;;;;;;12.23;9.05;;;17.50;99.90;;;;;;5024273;28;20096;-69
2023/06/16 03:29:38;;;;;;;11.98;9.20;;;17.50;99.90;;;;;;5027451;28;20465;-68
2023/06/16 03:32:07;;;;;;;12.90;9.65;;;17.50;99.90;;;;;;5026568;28;20045;-69
2023/06/16 03:34:32;;;;;;;16.88;10.80;;;17.50;99.90;;;;;;5031269;28;20036;-68
2023/06/16 03:36:58;;;;;;;13.50;10.27;;;17.50;99.90;;;;;;5022783;28;20037;-68
2023/06/16 03:39:25;;;;;;;13.20;11.15;;;17.50;99.90;;;;;;5028496;28;20374;-69
2023/06/16 03:41:51;;;;;;;17.02;10.27;;;17.40;99.90;;;;;;5029214;28;20026;-69
2023/06/16 03:44:17;;;;;;;13.57;9.98;;;17.30;99.90;;;;;;5030327;28;20005;-68
2023/06/16 03:46:42;;;;;;;16.38;11.18;;;17.30;99.90;;;;;;5024647;28;20582;-69
2023/06/16 03:49:08;;;;;;;14.27;10.45;;;17.30;99.90;;;;;;5025163;28;20053;-68
2023/06/16 03:51:34;;;;;;;15.45;11.18;;;17.30;99.90;;;;;;5023384;28;20381;-68
2023/06/16 03:54:00;;;;;;;19.70;11.88;;;17.30;99.90;;;;;;5030506;28;20075;-68
2023/06/16 03:56:25;;;;;;;15.02;11.70;;;17.30;99.90;;;;;;5027367;28;20033;-68
2023/06/16 03:58:51;;;;;;;17.75;12.77;;;17.20;99.90;;;;;;5027186;28;20088;-68
2023/06/16 04:01:20;;;;;;;15.40;11.38;;;17.20;99.90;;;;;;5032262;28;20026;-68
2023/06/16 04:03:46;;;;;;;15.13;11.63;;;17.20;99.90;;;;;;5027177;28;20046;-68
2023/06/16 04:06:12;;;;;;;11.38;10.18;;;17.20;99.90;;;;;;5026264;28;20033;-69
2023/06/16 04:08:38;;;;;;;12.68;10.93;;;17.10;99.90;;;;;;5016712;28;20560;-68
2023/06/16 04:11:04;;;;;;;18.02;11.15;;;17.20;99.90;;;;;;5028474;28;20381;-69
2023/06/16 04:13:30;;;;;;;14.63;12.02;;;17.20;99.90;;;;;;5026902;28;20449;-69
2023/06/16 04:15:56;;;;;;;20.20;12.48;;;17.20;99.90;;;;;;5022024;28;20029;-69
2023/06/16 04:18:22;;;;;;;17.23;12.30;;;17.20;99.90;;;;;;5025076;28;20029;-68
2023/06/16 04:20:48;;;;;;;18.85;12.45;;;17.10;99.90;;;;;;5023942;28;20033;-68
2023/06/16 04:23:14;;;;;;;18.10;13.38;;;17.10;99.90;;;;;;5022789;28;20076;-68
2023/06/16 04:25:40;;;;;;;12.85;11.23;;;17.10;99.90;;;;;;5027366;28;20036;-68
2023/06/16 04:28:07;;;;;;;15.98;11.43;;;17.10;99.90;;;;;;5014380;28;20124;-69
2023/06/16 04:30:33;;;;;;;15.20;12.65;;;17.10;99.90;;;;;;5025984;28;20013;-68
2023/06/16 04:33:01;;;;;;;15.65;11.38;;;17.10;99.90;;;;;;5028812;28;20034;-68
2023/06/16 04:35:31;;;;;;;13.60;12.02;;;17.10;99.90;;;;;;5029586;28;20022;-68
2023/06/16 04:37:58;;;;;;;13.48;11.30;;;17.10;99.90;;;;;;5027131;28;20032;-69
2023/06/16 04:40:25;;;;;;;18.13;13.25;;;17.10;99.90;;;;;;5026949;28;20363;-68
2023/06/16 04:42:51;;;;;;;14.00;12.57;;;17.10;99.90;;;;;;5028040;28;20235;-68
2023/06/16 04:45:17;;;;;;;17.48;12.27;;;17.10;99.90;;;;;;5028371;28;20529;-69
2023/06/16 04:47:44;;;;;;;14.10;12.20;;;17.10;99.90;;;;;;5026647;28;20034;-68
2023/06/16 04:50:10;;;;;;;14.15;10.95;;;17.10;99.90;;;;;;5032961;28;20508;-69
2023/06/16 04:52:36;;;;;;;17.17;10.77;;;17.10;99.90;;;;;;5029450;28;20123;-68
2023/06/16 04:55:04;;;;;;;15.55;10.65;;;17.10;99.90;;;;;;5024087;28;20045;-68
2023/06/16 04:57:31;;;;;;;13.75;11.70;;;17.20;99.90;;;;;;5025931;28;20104;-68
2023/06/16 04:59:58;;;;;;;15.95;11.35;;;17.10;99.90;;;;;;5022253;28;20068;-68
2023/06/16 05:02:23;;;;;;;12.60;11.10;;;17.10;99.90;;;;;;5014428;28;20033;-68
2023/06/16 05:04:49;;;;;;;13.88;11.02;;;17.20;99.90;;;;;;5028983;28;20037;-68
2023/06/16 05:07:15;;;;;;;18.23;11.88;;;17.20;99.90;;;;;;5026237;28;20036;-68
2023/06/16 05:09:40;;;;;;;17.08;12.68;;;17.20;99.90;;;;;;5021308;28;20025;-68
2023/06/16 05:12:06;;;;;;;17.60;10.85;;;17.30;99.90;;;;;;5031979;28;20105;-69
2023/06/16 05:14:33;;;;;;;15.35;10.95;;;17.30;99.90;;;;;;5026908;28;20384;-70
2023/06/16 05:16:59;;;;;;;12.13;10.55;;;17.30;99.90;;;;;;5019441;28;20022;-70
2023/06/16 05:19:25;;;;;;;13.55;9.80;;;17.40;99.90;;;;;;5013208;28;20024;-70
2023/06/16 05:21:51;;;;;;;11.88;9.95;;;17.30;99.90;;;;;;5029094;28;20032;-70
2023/06/16 05:24:17;;;;;;;12.02;10.13;;;17.30;99.90;;;;;;5013515;28;20030;-70
2023/06/16 05:26:42;;;;;;;13.15;10.68;;;17.40;99.90;;;;;;5023994;28;20053;-70
2023/06/16 05:29:08;;;;;;;15.63;11.20;;;17.50;99.90;;;;;;5026127;28;20064;-70
2023/06/16 05:31:35;;;;;;;14.43;11.05;;;17.50;99.90;;;;;;5032312;28;20025;-70
2023/06/16 05:34:01;;;;;;;15.38;11.10;;;17.50;99.90;;;;;;5013884;28;20079;-70
2023/06/16 05:36:29;;;;;;;14.50;10.90;;;17.60;99.90;;;;;;5028926;28;20105;-70
2023/06/16 05:38:55;;;;;;;16.80;12.30;;;17.60;99.90;;;;;;5024029;28;20021;-70
2023/06/16 05:41:24;;;;;;;13.15;10.85;;;17.60;99.90;;;;;;5026337;28;20859;-70
2023/06/16 05:43:55;;;;;;;16.20;13.13;;;17.70;99.90;;;;;;5026385;28;20076;-69
2023/06/16 05:46:21;;;;;;;18.02;12.25;;;17.70;99.90;;;;;;5021821;28;20108;-70
2023/06/16 05:48:47;;;;;;;16.02;11.52;;;17.80;99.90;;;;;;5018399;28;20040;-70
2023/06/16 05:51:13;;;;;;;17.42;11.65;;;17.80;99.90;;;;;;5029452;28;20022;-71
2023/06/16 05:53:38;;;;;;;21.52;11.63;;;17.90;99.90;;;;;;5026844;28;20041;-68
2023/06/16 05:56:04;;;;;;;14.90;10.70;;;17.90;99.90;;;;;;5016662;28;20026;-68
2023/06/16 05:58:33;;;;;;;18.77;12.43;;;17.90;99.90;;;;;;5025036;28;20088;-68
2023/06/16 06:00:59;;;;;;;13.15;11.00;;;18.00;99.90;;;;;;5010839;28;20021;-68
2023/06/16 06:03:25;;;;;;;14.98;10.43;;;18.00;99.90;;;;;;5024845;28;20116;-69
2023/06/16 06:05:50;;;;;;;14.88;10.82;;;18.10;99.90;;;;;;5024656;28;20030;-68
2023/06/16 06:08:16;;;;;;;13.98;10.45;;;18.10;99.90;;;;;;5028100;28;20033;-69
2023/06/16 06:10:42;;;;;;;15.00;10.82;;;18.20;99.90;;;;;;5023193;28;20044;-69
2023/06/16 06:13:07;;;;;;;12.80;9.68;;;18.20;99.90;;;;;;5023248;28;20034;-69
2023/06/16 06:15:33;;;;;;;13.85;9.98;;;18.20;99.90;;;;;;5026607;28;20009;-68
2023/06/16 06:17:59;;;;;;;12.95;10.00;;;18.30;99.90;;;;;;5026257;28;20033;-69
2023/06/16 06:20:25;;;;;;;14.13;8.60;;;18.30;99.90;;;;;;5026905;28;20068;-71
2023/06/16 06:22:50;;;;;;;17.27;8.80;;;18.40;99.90;;;;;;5025878;28;20057;-71
2023/06/16 06:25:16;;;;;;;37.22;9.55;;;18.40;99.90;;;;;;5022793;28;20082;-71
2023/06/16 06:27:42;;;;;;;18.25;9.23;;;18.40;99.90;;;;;;5031663;28;20044;-72
2023/06/16 06:30:08;;;;;;;21.10;8.77;;;18.50;99.90;;;;;;5023584;28;20026;-68
2023/06/16 06:32:34;;;;;;;23.98;9.02;;;18.50;99.90;;;;;;5023656;28;20044;-69
2023/06/16 06:35:00;;;;;;;16.08;9.63;;;18.60;99.90;;;;;;5031264;28;20112;-69
2023/06/16 06:37:31;;;;;;;22.77;9.15;;;18.70;99.90;;;;;;5030407;28;20108;-69
2023/06/16 06:39:57;;;;;;;12.50;7.95;;;18.70;99.90;;;;;;5028725;28;20022;-69
2023/06/16 06:42:23;;;;;;;16.40;8.90;;;18.80;99.90;;;;;;5029501;28;20030;-69
2023/06/16 06:44:49;;;;;;;13.88;8.13;;;19.00;99.90;;;;;;5015023;28;20022;-69
2023/06/16 06:47:14;;;;;;;22.75;8.90;;;19.10;99.90;;;;;;5023440;28;20037;-69
2023/06/16 06:49:41;;;;;;;16.52;9.30;;;19.30;99.90;;;;;;5033172;28;20436;-68
2023/06/16 06:52:07;;;;;;;17.92;8.15;;;19.40;99.90;;;;;;5031040;28;20017;-68
2023/06/16 06:54:33;;;;;;;19.70;7.80;;;19.60;99.90;;;;;;5028456;28;20060;-69
2023/06/16 06:56:59;;;;;;;19.00;8.30;;;19.80;99.90;;;;;;5024713;28;20108;-68
2023/06/16 06:59:24;;;;;;;13.05;6.75;;;20.10;99.90;;;;;;5032207;28;20029;-68
2023/06/16 07:01:50;;;;;;;8.98;6.38;;;20.40;99.90;;;;;;5027074;28;20029;-68
2023/06/16 07:04:16;;;;;;;8.18;6.13;;;20.40;99.90;;;;;;5030652;28;20030;-69
2023/06/16 07:06:41;;;;;;;8.35;7.05;;;20.60;99.90;;;;;;5027214;28;20046;-69
2023/06/16 07:09:07;;;;;;;10.80;7.00;;;20.80;99.90;;;;;;5025533;28;20359;-69
2023/06/16 07:11:33;;;;;;;10.55;5.97;;;21.10;99.90;;;;;;5028546;28;20021;-70
2023/06/16 07:14:01;;;;;;;7.32;5.88;;;21.20;99.90;;;;;;5033874;28;20025;-69
2023/06/16 07:16:27;;;;;;;11.52;7.10;;;21.30;99.90;;;;;;5027672;28;20020;-69
2023/06/16 07:18:53;;;;;;;13.90;6.43;;;21.40;99.90;;;;;;5029433;28;20025;-68
2023/06/16 07:21:19;;;;;;;9.70;6.38;;;21.50;99.90;;;;;;5027495;28;20033;-69
2023/06/16 07:23:45;;;;;;;7.55;5.35;;;21.70;99.90;;;;;;5026882;28;20021;-69
2023/06/16 07:26:10;;;;;;;7.13;5.68;;;21.80;99.90;;;;;;5027429;28;20052;-69
2023/06/16 07:28:37;;;;;;;9.65;5.30;;;21.80;99.90;;;;;;5032345;28;20020;-69
2023/06/16 07:31:03;;;;;;;8.93;6.53;;;22.20;99.90;;;;;;5024262;28;20033;-69
2023/06/16 07:33:29;;;;;;;8.85;6.30;;;22.30;99.90;;;;;;5024319;28;20105;-69
2023/06/16 07:35:54;;;;;;;9.20;6.00;;;22.30;99.90;;;;;;5032171;28;20025;-69
2023/06/16 07:38:20;;;;;;;6.63;5.07;;;22.40;99.90;;;;;;5018469;28;20109;-69
2023/06/16 07:40:46;;;;;;;9.57;5.18;;;22.60;99.90;;;;;;5031571;28;20104;-69
2023/06/16 07:43:11;;;;;;;12.23;6.25;;;22.70;99.90;;;;;;5023776;28;20111;-69
2023/06/16 07:45:37;;;;;;;11.07;6.68;;;22.90;97.10;;;;;;5026843;28;20800;-69
2023/06/16 07:48:04;;;;;;;8.40;5.43;;;23.00;95.80;;;;;;5025555;28;20092;-69
2023/06/16 07:50:30;;;;;;;6.75;5.95;;;23.20;96.30;;;;;;5026961;28;20094;-69
2023/06/16 07:52:56;;;;;;;8.70;6.50;;;23.20;95.20;;;;;;5027899;28;20036;-69
2023/06/16 07:55:22;;;;;;;7.38;5.70;;;23.60;93.70;;;;;;5014232;28;20018;-69
2023/06/16 07:57:48;;;;;;;12.52;5.30;;;23.70;94.80;;;;;;5028211;28;20359;-69
2023/06/16 08:00:15;;;;;;;7.97;5.28;;;23.90;93.70;;;;;;5012919;28;20029;-69
2023/06/16 08:02:41;;;;;;;12.70;5.35;;;24.10;93.50;;;;;;5023344;28;20029;-69
2023/06/16 08:05:09;;;;;;;10.52;6.15;;;24.00;96.60;;;;;;5022163;28;20178;-69
2023/06/16 08:07:35;;;;;;;9.38;6.10;;;24.00;93.80;;;;;;5024476;28;20044;-69
2023/06/16 08:10:02;;;;;;;9.05;5.45;;;24.10;92.30;;;;;;5024926;28;20102;-69
2023/06/16 08:12:28;;;;;;;8.57;5.07;;;24.20;93.00;;;;;;5029798;28;20025;-69
2023/06/16 08:14:54;;;;;;;11.88;5.38;;;24.40;93.30;;;;;;5025287;28;20033;-69
2023/06/16 08:17:19;;;;;;;7.82;5.32;;;24.70;91.90;;;;;;5026326;28;20650;-69
2023/06/16 08:19:45;;;;;;;9.40;5.97;;;24.80;92.40;;;;;;5022806;28;20033;-69
2023/06/16 08:22:11;;;;;;;7.15;5.07;;;24.80;90.70;;;;;;5016540;28;20030;-69
2023/06/16 08:24:37;;;;;;;9.07;5.82;;;24.80;90.90;;;;;;5027703;28;20017;-70
2023/06/16 08:27:04;;;;;;;8.85;5.70;;;24.80;89.50;;;;;;5024432;28;20029;-68
2023/06/16 08:29:30;;;;;;;13.80;6.00;;;24.90;90.70;;;;;;5028151;28;20104;-67
2023/06/16 08:31:56;;;;;;;9.43;5.97;;;25.00;90.10;;;;;;5026315;28;20021;-67
2023/06/16 08:34:22;;;;;;;10.82;5.00;;;25.20;89.30;;;;;;5015700;28;20036;-67
2023/06/16 08:36:48;;;;;;;6.75;4.80;;;25.20;90.20;;;;;;5013580;28;20026;-67
2023/06/16 08:39:13;;;;;;;5.80;4.40;;;25.20;90.60;;;;;;5022048;28;20474;-67
2023/06/16 08:41:39;;;;;;;5.70;4.85;;;25.20;89.70;;;;;;5031492;28;20447;-67
2023/06/16 08:44:08;;;;;;;6.85;4.50;;;25.40;84.30;;;;;;5028979;28;20097;-68
2023/06/16 08:46:35;;;;;;;21.45;7.18;;;25.40;87.00;;;;;;5000521;28;20057;-68
2023/06/16 08:49:00;;;;;;;12.70;5.70;;;25.60;87.40;;;;;;5021507;28;20025;-67
2023/06/16 08:51:27;;;;;;;26.70;11.82;;;25.80;87.20;;;;;;5027025;28;20389;-67
2023/06/16 08:54:00;;;;;;;5.50;4.38;;;26.00;87.30;;;;;;5026751;28;20031;-67
2023/06/16 08:56:29;;;;;;;5.75;4.60;;;26.20;84.80;;;;;;5024702;28;20596;-67
2023/06/16 08:58:57;;;;;;;7.82;4.80;;;26.20;84.90;;;;;;5023847;28;20017;-67
2023/06/16 09:01:24;;;;;;;7.60;4.22;;;26.40;82.00;;;;;;5025251;28;20126;-67
2023/06/16 09:03:52;;;;;;;11.23;4.50;;;26.60;81.80;;;;;;5024913;28;20017;-67
2023/06/16 09:06:17;;;;;;;7.10;4.80;;;26.60;81.80;;;;;;5025851;28;20108;-67
2023/06/16 09:08:43;;;;;;;12.90;5.07;;;26.60;82.20;;;;;;5024991;28;20172;-67
2023/06/16 09:11:09;;;;;;;7.60;3.97;;;26.70;80.90;;;;;;5025507;28;20464;-67
2023/06/16 09:13:42;;;;;;;6.68;4.25;;;26.60;77.80;;;;;;5024232;28;20359;-68
2023/06/16 09:16:09;;;;;;;6.13;4.07;;;26.60;79.80;;;;;;5024088;28;20469;-68
2023/06/16 09:18:40;;;;;;;5.47;4.10;;;26.90;78.80;;;;;;5025626;28;20030;-68
2023/06/16 09:21:08;;;;;;;7.57;4.97;;;26.80;81.30;;;;;;5026315;28;20033;-68
2023/06/16 09:23:35;;;;;;;5.82;4.25;;;27.00;76.00;;;;;;5026164;28;20671;-67
2023/06/16 09:26:11;;;;;;;4.50;4.10;;;27.20;80.10;;;;;;5012324;28;20477;-67
2023/06/16 09:28:37;;;;;;;17.85;5.05;;;27.30;75.70;;;;;;5025675;28;20135;-68
2023/06/16 09:31:08;;;;;;;83.05;8.88;;;27.40;72.60;;;;;;5006801;28;20033;-67
2023/06/16 09:33:34;;;;;;;12.63;3.65;;;27.50;76.20;;;;;;5024298;28;20118;-67
2023/06/16 09:36:00;;;;;;;5.82;3.80;;;27.70;72.30;;;;;;5025686;28;20029;-67
2023/06/16 09:38:31;;;;;;;10.27;4.38;;;27.80;73.00;;;;;;5008691;28;20022;-67
2023/06/16 09:41:15;;;;;;;5.25;4.25;;;27.70;76.80;;;;;;5026150;28;20382;-69
2023/06/16 09:43:42;;;;;;;14.00;4.35;;;27.80;72.40;;;;;;5025102;28;20126;-68
2023/06/16 09:46:13;;;;;;;4.30;3.80;;;27.90;71.60;;;;;;5004844;28;20478;-69
2023/06/16 09:48:49;;;;;;;8.10;4.00;;;28.10;70.40;;;;;;5024105;28;20049;-69
2023/06/16 09:51:20;;;;;;;7.10;4.45;;;28.10;67.20;;;;;;5025184;28;20010;-70
2023/06/16 09:53:46;;;;;;;6.95;4.15;;;27.90;65.60;;;;;;5023791;28;20040;-69
2023/06/16 09:56:16;;;;;;;4.13;3.60;;;28.10;68.90;;;;;;5025578;28;20029;-69
2023/06/16 09:58:43;;;;;;;5.32;4.10;;;28.20;68.50;;;;;;5024119;28;20060;-69
2023/06/16 10:01:13;;;;;;;7.90;4.13;;;28.30;66.60;;;;;;5008575;28;20390;-70
2023/06/16 10:03:43;;;;;;;6.32;4.03;;;28.50;64.40;;;;;;5022275;28;20029;-71
2023/06/16 10:06:20;;;;;;;6.22;3.65;;;28.50;71.70;;;;;;5022912;28;20041;-71
2023/06/16 10:08:49;;;;;;;4.53;4.13;;;28.70;66.20;;;;;;5009322;28;20127;-70
2023/06/16 10:11:18;;;;;;;10.75;3.92;;;28.70;63.30;;;;;;5019340;28;20030;-71
2023/06/16 10:13:56;;;;;;;7.05;3.83;;;28.90;63.60;;;;;;5023998;28;20028;-71
2023/06/16 10:16:28;;;;;;;5.45;3.95;;;29.10;63.10;;;;;;5024155;28;20029;-70
2023/06/16 10:18:57;;;;;;;4.82;4.35;;;29.30;62.20;;;;;;5009116;28;20101;-71
2023/06/16 10:21:23;;;;;;;7.00;4.03;;;29.40;62.60;;;;;;5024211;28;20030;-71
2023/06/16 10:23:50;;;;;;;5.30;4.20;;;29.50;60.10;;;;;;5023140;28;20469;-70
2023/06/16 10:26:16;;;;;;;4.78;4.10;;;29.40;60.80;;;;;;5024180;28;20033;-71
2023/06/16 10:28:42;;;;;;;7.95;4.60;;;29.30;65.10;;;;;;5004534;28;20104;-70
2023/06/16 10:31:09;;;;;;;6.60;4.45;;;29.50;61.50;;;;;;5007827;28;20032;-70
2023/06/16 10:33:56;;;;;;;6.20;3.67;;;29.50;61.40;;;;;;5024333;28;20029;-70
2023/06/16 10:36:33;;;;;;;5.32;4.03;;;29.50;62.20;;;;;;5024030;28;20119;-68
2023/06/16 10:39:18;;;;;;;4.38;3.97;;;29.60;64.80;;;;;;5008870;28;20045;-70
2023/06/16 10:41:54;;;;;;;4.50;3.67;;;29.30;59.90;;;;;;5021599;28;20040;-71
2023/06/16 10:44:30;;;;;;;5.75;4.10;;;29.50;65.40;;;;;;5023760;28;20025;-71
2023/06/16 10:47:11;;;;;;;6.95;4.10;;;29.60;64.60;;;;;;5022539;28;20484;-71
2023/06/16 10:49:52;;;;;;;4.60;4.20;;;29.50;61.10;;;;;;5023451;28;20033;-69
2023/06/16 10:52:31;;;;;;;9.45;4.13;;;29.40;58.20;;;;;;5007213;28;20025;-69
2023/06/16 10:54:59;;;;;;;12.95;4.22;;;29.50;61.90;;;;;;5022194;28;20034;-69
2023/06/16 10:57:25;;;;;;;4.53;3.55;;;29.60;61.00;;;;;;5004563;28;20024;-70
2023/06/16 10:59:54;;;;;;;7.60;4.18;;;29.80;60.60;;;;;;5005208;28;20026;-70
2023/06/16 11:02:32;;;;;;;4.70;4.20;;;30.00;68.20;;;;;;5022130;28;20072;-70
2023/06/16 11:05:22;;;;;;;5.47;4.55;;;30.10;65.40;;;;;;5022910;28;20128;-71
2023/06/16 11:08:06;;;;;;;3.95;3.65;;;29.60;60.00;;;;;;5020099;28;20033;-69
2023/06/16 11:10:51;;;;;;;6.13;4.22;;;29.60;58.70;;;;;;5022705;28;20040;-69
2023/06/16 11:13:21;;;;;;;4.45;3.80;;;29.50;59.50;;;;;;5007361;28;20385;-69
2023/06/16 11:15:46;;;;;;;7.72;4.22;;;29.60;63.40;;;;;;5023379;28;20032;-70
2023/06/16 11:18:13;;;;;;;5.03;4.07;;;29.80;60.40;;;;;;5024895;28;20030;-69
2023/06/16 11:20:39;;;;;;;4.90;4.50;;;30.10;59.10;;;;;;5023617;28;20082;-69
2023/06/16 11:23:05;;;;;;;8.55;4.38;;;30.40;60.10;;;;;;5025981;28;20037;-69
2023/06/16 11:25:31;;;;;;;6.32;3.90;;;30.70;58.00;;;;;;5026171;28;20025;-70
2023/06/16 11:27:57;;;;;;;8.18;4.43;;;30.70;59.40;;;;;;5027525;28;20037;-69
2023/06/16 11:30:24;;;;;;;7.07;4.22;;;30.60;61.80;;;;;;5028425;28;20029;-69
2023/06/16 11:32:50;;;;;;;6.35;4.43;;;30.70;61.20;;;;;;5025547;28;20100;-69
2023/06/16 11:35:17;;;;;;;4.60;4.18;;;30.60;62.20;;;;;;5027121;28;20029;-70
2023/06/16 11:37:54;;;;;;;4.63;4.22;;;31.00;57.50;;;;;;5008806;28;20196;-68
2023/06/16 11:40:22;;;;;;;6.30;4.35;;;30.90;59.50;;;;;;5011945;28;20037;-68
2023/06/16 11:42:58;;;;;;;4.63;4.13;;;30.90;58.80;;;;;;5024848;28;20034;-69
2023/06/16 11:45:32;;;;;;;6.60;4.57;;;30.70;63.00;;;;;;5026056;28;20017;-69
2023/06/16 11:47:59;;;;;;;4.43;4.03;;;30.70;57.00;;;;;;5025381;28;20510;-68
2023/06/16 11:50:26;;;;;;;6.82;4.80;;;30.70;62.30;;;;;;5027986;28;20377;-69
2023/06/16 11:52:53;;;;;;;5.10;4.60;;;30.70;62.80;;;;;;5025840;28;20112;-68
2023/06/16 11:55:19;;;;;;;6.13;4.65;;;30.70;59.40;;;;;;5027568;28;20113;-68
2023/06/16 11:57:45;;;;;;;6.13;4.93;;;30.80;62.80;;;;;;5026825;28;20048;-68
2023/06/16 12:00:14;;;;;;;7.95;4.90;;;30.80;60.20;;;;;;5026912;28;20018;-67
2023/06/16 12:02:41;;;;;;;6.90;4.25;;;30.80;62.10;;;;;;5026117;28;20033;-66
2023/06/16 12:05:12;;;;;;;6.97;4.50;;;30.50;61.70;;;;;;5026213;28;20470;-67
2023/06/16 12:07:39;;;;;;;6.07;4.00;;;30.60;60.40;;;;;;5026421;28;20476;-68
2023/06/16 12:10:06;;;;;;;5.25;4.07;;;30.60;61.30;;;;;;5025778;28;20500;-68
2023/06/16 12:12:33;;;;;;;8.05;4.65;;;30.40;63.00;;;;;;5025392;28;20536;-69
2023/06/16 12:15:00;;;;;;;7.55;4.43;;;30.30;60.20;;;;;;5025579;28;20017;-69
2023/06/16 12:17:26;;;;;;;7.45;4.10;;;30.40;66.20;;;;;;5027075;28;20033;-68
2023/06/16 12:19:52;;;;;;;7.13;4.07;;;30.30;70.30;;;;;;5010338;28;20022;-69
2023/06/16 12:22:20;;;;;;;10.63;4.68;;;30.30;61.40;;;;;;5025969;28;20032;-68
2023/06/16 12:24:50;;;;;;;7.00;5.30;;;30.20;61.00;;;;;;5007058;28;20021;-68
2023/06/16 12:27:24;;;;;;;6.95;4.45;;;30.10;60.80;;;;;;5025674;28;20108;-68
2023/06/16 12:29:58;;;;;;;7.50;4.55;;;30.10;63.60;;;;;;5026110;28;20425;-71
2023/06/16 12:32:32;;;;;;;5.65;4.35;;;30.20;58.80;;;;;;5026046;28;20035;-68
2023/06/16 12:34:58;;;;;;;5.55;4.72;;;30.30;58.10;;;;;;5026978;28;20404;-68
2023/06/16 12:37:28;;;;;;;4.82;3.95;;;30.30;59.10;;;;;;5026734;28;20457;-68
2023/06/16 12:40:06;;;;;;;5.03;4.55;;;30.30;60.70;;;;;;5025864;28;20031;-68
2023/06/16 12:42:33;;;;;;;5.03;4.57;;;30.40;57.30;;;;;;5025712;28;20028;-68
2023/06/16 12:45:01;;;;;;;8.73;4.97;;;30.10;58.70;;;;;;5026415;28;20109;-67